sensor_id;sensor_type;location;lat;lon;timestamp;pressure;altitude;pressure_sealevel;temperature;humidity
24065;BME280;12258;50.940;5.330;2022-08-19T00:01:28;100957.56;;;23.01;100.00
24065;BME280;12258;50.940;5.330;2022-08-19T00:03:55;100960.19;;;22.97;100.00
24065;BME280;12258;50.940;5.330;2022-08-19T00:06:21;100960.69;;;22.99;100.00
24065;BME280;12258;50.940;5.330;2022-08-19T00:08:46;100957.75;;;22.96;100.00
24065;BME280;12258;50.940;5.330;2022-08-19T00:11:13;100967.59;;;22.93;100.00
24065;BME280;12258;50.940;5.330;2022-08-19T00:13:39;100972.34;;;22.93;100.00
24065;BME280;12258;50.940;5.330;2022-08-19T00:16:06;100980.38;;;22.94;100.00
24065;BME280;12258;50.940;5.330;2022-08-19T00:18:33;100975.94;;;22.93;100.00
24065;BME280;12258;50.940;5.330;2022-08-19T00:20:59;100970.59;;;22.88;100.00
24065;BME280;12258;50.940;5.330;2022-08-19T00:23:25;100974.31;;;22.92;100.00
24065;BME280;12258;50.940;5.330;2022-08-19T00:25:51;100971.41;;;22.80;100.00
24065;BME280;12258;50.940;5.330;2022-08-19T00:28:17;100964.38;;;22.83;100.00
24065;BME280;12258;50.940;5.330;2022-08-19T00:30:43;100964.53;;;22.78;100.00
24065;BME280;12258;50.940;5.330;2022-08-19T00:33:09;100974.56;;;22.70;100.00
24065;BME280;12258;50.940;5.330;2022-08-19T00:35:35;100967.84;;;22.71;100.00
24065;BME280;12258;50.940;5.330;2022-08-19T00:38:01;100975.72;;;22.69;100.00
24065;BME280;12258;50.940;5.330;2022-08-19T00:40:26;100981.13;;;22.66;100.00
24065;BME280;12258;50.940;5.330;2022-08-19T00:42:52;100976.38;;;22.66;100.00
24065;BME280;12258;50.940;5.330;2022-08-19T00:45:23;100979.03;;;22.54;100.00
24065;BME280;12258;50.940;5.330;2022-08-19T00:47:49;100972.47;;;22.58;100.00
24065;BME280;12258;50.940;5.330;2022-08-19T00:50:18;100979.38;;;22.44;100.00
24065;BME280;12258;50.940;5.330;2022-08-19T00:52:47;100973.31;;;22.25;100.00
24065;BME280;12258;50.940;5.330;2022-08-19T00:55:19;100974.09;;;22.68;100.00
24065;BME280;12258;50.940;5.330;2022-08-19T00:57:53;100970.81;;;22.66;100.00
24065;BME280;12258;50.940;5.330;2022-08-19T01:00:22;100972.44;;;22.67;100.00
24065;BME280;12258;50.940;5.330;2022-08-19T01:02:48;100970.81;;;22.66;100.00
24065;BME280;12258;50.940;5.330;2022-08-19T01:05:21;100974.44;;;22.58;100.00
24065;BME280;12258;50.940;5.330;2022-08-19T01:07:48;100967.09;;;22.53;100.00
24065;BME280;12258;50.940;5.330;2022-08-19T01:10:22;100961.19;;;22.55;100.00
24065;BME280;12258;50.940;5.330;2022-08-19T01:12:48;100965.09;;;22.54;100.00
24065;BME280;12258;50.940;5.330;2022-08-19T01:15:19;100969.03;;;22.44;100.00
24065;BME280;12258;50.940;5.330;2022-08-19T01:17:45;100964.28;;;22.45;100.00
24065;BME280;12258;50.940;5.330;2022-08-19T01:20:16;100961.00;;;22.43;100.00
24065;BME280;12258;50.940;5.330;2022-08-19T01:22:53;100969.88;;;22.53;100.00
24065;BME280;12258;50.940;5.330;2022-08-19T01:25:25;100981.31;;;22.35;100.00
24065;BME280;12258;50.940;5.330;2022-08-19T01:27:52;100985.91;;;22.39;100.00
24065;BME280;12258;50.940;5.330;2022-08-19T01:30:26;100977.75;;;21.92;100.00
24065;BME280;12258;50.940;5.330;2022-08-19T01:32:53;100987.56;;;22.32;100.00
24065;BME280;12258;50.940;5.330;2022-08-19T01:35:19;100979.88;;;21.86;100.00
24065;BME280;12258;50.940;5.330;2022-08-19T01:37:54;100984.94;;;22.10;100.00
24065;BME280;12258;50.940;5.330;2022-08-19T01:40:24;100985.28;;;22.34;100.00
24065;BME280;12258;50.940;5.330;2022-08-19T01:42:51;100996.41;;;22.34;100.00
24065;BME280;12258;50.940;5.330;2022-08-19T01:45:19;100985.44;;;22.20;100.00
24065;BME280;12258;50.940;5.330;2022-08-19T01:47:45;100988.19;;;22.37;100.00
24065;BME280;12258;50.940;5.330;2022-08-19T01:50:11;101000.69;;;22.06;100.00
24065;BME280;12258;50.940;5.330;2022-08-19T01:52:39;100993.63;;;22.25;100.00
24065;BME280;12258;50.940;5.330;2022-08-19T01:55:08;100998.88;;;22.27;100.00
24065;BME280;12258;50.940;5.330;2022-08-19T01:57:33;100998.03;;;22.35;100.00
24065;BME280;12258;50.940;5.330;2022-08-19T01:59:59;100994.13;;;22.19;100.00
24065;BME280;12258;50.940;5.330;2022-08-19T02:02:25;101005.22;;;21.76;100.00
24065;BME280;12258;50.940;5.330;2022-08-19T02:04:51;101002.63;;;21.80;100.00
24065;BME280;12258;50.940;5.330;2022-08-19T02:07:20;100996.56;;;22.03;100.00
24065;BME280;12258;50.940;5.330;2022-08-19T02:09:47;100994.63;;;22.21;100.00
24065;BME280;12258;50.940;5.330;2022-08-19T02:12:14;100995.91;;;22.23;100.00
24065;BME280;12258;50.940;5.330;2022-08-19T02:14:40;101002.31;;;22.24;100.00
24065;BME280;12258;50.940;5.330;2022-08-19T02:17:06;100999.53;;;22.07;100.00
24065;BME280;12258;50.940;5.330;2022-08-19T02:19:31;101002.81;;;22.09;100.00
24065;BME280;12258;50.940;5.330;2022-08-19T02:22:00;100999.03;;;21.88;100.00
24065;BME280;12258;50.940;5.330;2022-08-19T02:24:26;100993.78;;;22.12;100.00
24065;BME280;12258;50.940;5.330;2022-08-19T02:26:53;101010.50;;;21.95;100.00
24065;BME280;12258;50.940;5.330;2022-08-19T02:29:19;101018.66;;;22.00;100.00
24065;BME280;12258;50.940;5.330;2022-08-19T02:31:44;101019.50;;;22.00;100.00
24065;BME280;12258;50.940;5.330;2022-08-19T02:34:10;101017.53;;;22.01;100.00
24065;BME280;12258;50.940;5.330;2022-08-19T02:36:35;101014.09;;;22.04;100.00
24065;BME280;12258;50.940;5.330;2022-08-19T02:39:01;101017.03;;;21.90;100.00
24065;BME280;12258;50.940;5.330;2022-08-19T02:41:29;101009.94;;;21.59;100.00
24065;BME280;12258;50.940;5.330;2022-08-19T02:43:56;101010.50;;;21.95;100.00
24065;BME280;12258;50.940;5.330;2022-08-19T02:46:28;101008.03;;;21.85;100.00
24065;BME280;12258;50.940;5.330;2022-08-19T02:49:00;101011.78;;;21.80;100.00
24065;BME280;12258;50.940;5.330;2022-08-19T02:51:30;101011.31;;;21.95;100.00
24065;BME280;12258;50.940;5.330;2022-08-19T02:53:56;101014.06;;;21.87;100.00
24065;BME280;12258;50.940;5.330;2022-08-19T02:56:23;101013.19;;;21.61;100.00
24065;BME280;12258;50.940;5.330;2022-08-19T02:58:50;101015.78;;;21.49;100.00
24065;BME280;12258;50.940;5.330;2022-08-19T03:03:50;101012.19;;;21.48;100.00
24065;BME280;12258;50.940;5.330;2022-08-19T03:06:16;101008.53;;;21.30;100.00
24065;BME280;12258;50.940;5.330;2022-08-19T03:08:43;101012.44;;;21.29;100.00
24065;BME280;12258;50.940;5.330;2022-08-19T03:11:20;101008.09;;;21.46;100.00
24065;BME280;12258;50.940;5.330;2022-08-19T03:13:46;101016.63;;;21.58;100.00
24065;BME280;12258;50.940;5.330;2022-08-19T03:16:15;101024.16;;;21.66;100.00
24065;BME280;12258;50.940;5.330;2022-08-19T03:18:41;101014.97;;;21.48;100.00
24065;BME280;12258;50.940;5.330;2022-08-19T03:21:06;101010.53;;;21.39;100.00
24065;BME280;12258;50.940;5.330;2022-08-19T03:23:32;101013.75;;;21.80;100.00
24065;BME280;12258;50.940;5.330;2022-08-19T03:25:57;101012.34;;;21.52;100.00
24065;BME280;12258;50.940;5.330;2022-08-19T03:28:23;101015.03;;;21.17;100.00
24065;BME280;12258;50.940;5.330;2022-08-19T03:31:14;101021.22;;;21.71;100.00
24065;BME280;12258;50.940;5.330;2022-08-19T03:33:40;101015.00;;;21.57;100.00
24065;BME280;12258;50.940;5.330;2022-08-19T03:36:08;101019.06;;;21.51;100.00
24065;BME280;12258;50.940;5.330;2022-08-19T03:38:40;101011.69;;;21.55;100.00
24065;BME280;12258;50.940;5.330;2022-08-19T03:41:11;101025.81;;;21.67;100.00
24065;BME280;12258;50.940;5.330;2022-08-19T03:43:39;101035.28;;;21.66;100.00
24065;BME280;12258;50.940;5.330;2022-08-19T03:46:10;101030.50;;;21.58;100.00
24065;BME280;12258;50.940;5.330;2022-08-19T03:48:37;101031.50;;;21.53;100.00
24065;BME280;12258;50.940;5.330;2022-08-19T03:51:04;101030.50;;;21.58;100.00
24065;BME280;12258;50.940;5.330;2022-08-19T03:53:31;101024.16;;;21.57;100.00
24065;BME280;12258;50.940;5.330;2022-08-19T03:55:58;101022.31;;;21.53;100.00
24065;BME280;12258;50.940;5.330;2022-08-19T03:58:26;101022.47;;;21.39;100.00
24065;BME280;12258;50.940;5.330;2022-08-19T04:00:57;101024.31;;;21.52;100.00
24065;BME280;12258;50.940;5.330;2022-08-19T04:03:24;101019.03;;;21.42;100.00
24065;BME280;12258;50.940;5.330;2022-08-19T04:05:50;101026.78;;;21.14;100.00
24065;BME280;12258;50.940;5.330;2022-08-19T04:08:15;101021.59;;;21.30;100.00
24065;BME280;12258;50.940;5.330;2022-08-19T04:10:44;101015.22;;;21.29;100.00
24065;BME280;12258;50.940;5.330;2022-08-19T04:13:09;101012.47;;;21.38;100.00
24065;BME280;12258;50.940;5.330;2022-08-19T04:15:39;101008.19;;;21.23;100.00
24065;BME280;12258;50.940;5.330;2022-08-19T04:18:07;101011.88;;;21.10;100.00
24065;BME280;12258;50.940;5.330;2022-08-19T04:20:38;101009.03;;;21.33;100.00
24065;BME280;12258;50.940;5.330;2022-08-19T04:23:04;101015.38;;;21.24;100.00
24065;BME280;12258;50.940;5.330;2022-08-19T04:25:35;101014.28;;;21.34;100.00
24065;BME280;12258;50.940;5.330;2022-08-19T04:28:01;101008.03;;;21.28;100.00
24065;BME280;12258;50.940;5.330;2022-08-19T04:30:26;101010.25;;;21.09;100.00
24065;BME280;12258;50.940;5.330;2022-08-19T04:32:52;101001.47;;;21.24;100.00
24065;BME280;12258;50.940;5.330;2022-08-19T04:35:18;100995.44;;;21.22;100.00
24065;BME280;12258;50.940;5.330;2022-08-19T04:37:44;100994.94;;;21.20;100.00
24065;BME280;12258;50.940;5.330;2022-08-19T04:40:10;100999.00;;;21.14;100.00
24065;BME280;12258;50.940;5.330;2022-08-19T04:42:54;100988.44;;;20.94;100.00
24065;BME280;12258;50.940;5.330;2022-08-19T04:45:20;101001.16;;;20.95;100.00
24065;BME280;12258;50.940;5.330;2022-08-19T04:47:46;100999.50;;;20.86;100.00
24065;BME280;12258;50.940;5.330;2022-08-19T04:50:12;101005.44;;;20.62;100.00
24065;BME280;12258;50.940;5.330;2022-08-19T04:52:38;101002.59;;;20.84;100.00
24065;BME280;12258;50.940;5.330;2022-08-19T04:55:09;101017.13;;;20.59;100.00
24065;BME280;12258;50.940;5.330;2022-08-19T04:57:35;101013.56;;;20.89;100.00
24065;BME280;12258;50.940;5.330;2022-08-19T05:00:07;101016.97;;;20.86;100.00
24065;BME280;12258;50.940;5.330;2022-08-19T05:02:33;101022.44;;;20.69;100.00
24065;BME280;12258;50.940;5.330;2022-08-19T05:04:59;101028.69;;;20.75;100.00
24065;BME280;12258;50.940;5.330;2022-08-19T05:07:26;101030.03;;;20.86;100.00
24065;BME280;12258;50.940;5.330;2022-08-19T05:09:52;101034.75;;;20.85;100.00
24065;BME280;12258;50.940;5.330;2022-08-19T05:12:18;101045.75;;;20.90;100.00
24065;BME280;12258;50.940;5.330;2022-08-19T05:14:45;101044.38;;;20.79;100.00
24065;BME280;12258;50.940;5.330;2022-08-19T05:17:14;101052.91;;;20.61;100.00
24065;BME280;12258;50.940;5.330;2022-08-19T05:19:39;101062.19;;;20.56;100.00
24065;BME280;12258;50.940;5.330;2022-08-19T05:22:23;101067.63;;;20.61;100.00
24065;BME280;12258;50.940;5.330;2022-08-19T05:25:09;101070.75;;;20.46;100.00
24065;BME280;12258;50.940;5.330;2022-08-19T05:27:35;101071.72;;;20.20;100.00
24065;BME280;12258;50.940;5.330;2022-08-19T05:30:02;101072.66;;;20.59;100.00
24065;BME280;12258;50.940;5.330;2022-08-19T05:32:27;101077.03;;;20.52;100.00
24065;BME280;12258;50.940;5.330;2022-08-19T05:34:53;101072.16;;;20.79;100.00
24065;BME280;12258;50.940;5.330;2022-08-19T05:37:19;101069.28;;;20.62;100.00
24065;BME280;12258;50.940;5.330;2022-08-19T05:39:44;101077.97;;;20.69;100.00
24065;BME280;12258;50.940;5.330;2022-08-19T05:42:12;101069.94;;;20.68;100.00
24065;BME280;12258;50.940;5.330;2022-08-19T05:44:41;101073.16;;;20.83;100.00
24065;BME280;12258;50.940;5.330;2022-08-19T05:47:13;101075.69;;;20.71;100.00
24065;BME280;12258;50.940;5.330;2022-08-19T05:49:40;101070.41;;;20.61;100.00
24065;BME280;12258;50.940;5.330;2022-08-19T05:52:11;101073.78;;;20.36;100.00
24065;BME280;12258;50.940;5.330;2022-08-19T05:54:39;101071.44;;;20.74;100.00
24065;BME280;12258;50.940;5.330;2022-08-19T05:57:08;101079.34;;;20.80;100.00
24065;BME280;12258;50.940;5.330;2022-08-19T05:59:35;101080.94;;;20.51;100.00
24065;BME280;12258;50.940;5.330;2022-08-19T06:02:02;101076.06;;;20.34;100.00
24065;BME280;12258;50.940;5.330;2022-08-19T06:04:28;101075.47;;;20.24;100.00
24065;BME280;12258;50.940;5.330;2022-08-19T06:06:54;101072.53;;;20.64;100.00
24065;BME280;12258;50.940;5.330;2022-08-19T06:09:22;101071.50;;;20.82;100.00
24065;BME280;12258;50.940;5.330;2022-08-19T06:11:50;101080.03;;;20.20;100.00
24065;BME280;12258;50.940;5.330;2022-08-19T06:14:23;101084.16;;;20.66;100.00
24065;BME280;12258;50.940;5.330;2022-08-19T06:16:50;101087.53;;;20.85;100.00
24065;BME280;12258;50.940;5.330;2022-08-19T06:19:21;101084.09;;;20.80;100.00
24065;BME280;12258;50.940;5.330;2022-08-19T06:21:49;101084.31;;;20.48;100.00
24065;BME280;12258;50.940;5.330;2022-08-19T06:24:18;101092.22;;;20.32;100.00
24065;BME280;12258;50.940;5.330;2022-08-19T06:26:46;101091.34;;;20.67;100.00
24065;BME280;12258;50.940;5.330;2022-08-19T06:29:13;101086.44;;;20.42;100.00
24065;BME280;12258;50.940;5.330;2022-08-19T06:31:45;101075.00;;;20.44;100.00
24065;BME280;12258;50.940;5.330;2022-08-19T06:34:12;101074.31;;;21.04;100.00
24065;BME280;12258;50.940;5.330;2022-08-19T06:36:41;101064.59;;;20.71;100.00
24065;BME280;12258;50.940;5.330;2022-08-19T06:39:22;101071.84;;;21.03;100.00
24065;BME280;12258;50.940;5.330;2022-08-19T06:41:49;101082.34;;;20.92;100.00
24065;BME280;12258;50.940;5.330;2022-08-19T06:44:17;101082.09;;;21.33;100.00
24065;BME280;12258;50.940;5.330;2022-08-19T06:46:43;101088.72;;;21.46;100.00
24065;BME280;12258;50.940;5.330;2022-08-19T06:49:08;101087.44;;;20.68;100.00
24065;BME280;12258;50.940;5.330;2022-08-19T06:51:36;101087.53;;;20.85;100.00
24065;BME280;12258;50.940;5.330;2022-08-19T06:54:03;101092.03;;;20.73;100.00
24065;BME280;12258;50.940;5.330;2022-08-19T06:56:30;101083.94;;;21.38;100.00
24065;BME280;12258;50.940;5.330;2022-08-19T06:59:00;101091.69;;;21.58;100.00
24065;BME280;12258;50.940;5.330;2022-08-19T07:01:26;101097.94;;;21.63;100.00
24065;BME280;12258;50.940;5.330;2022-08-19T07:03:52;101098.44;;;21.26;100.00
24065;BME280;12258;50.940;5.330;2022-08-19T07:06:18;101099.84;;;21.46;100.00
24065;BME280;12258;50.940;5.330;2022-08-19T07:08:46;101103.31;;;22.24;100.00
24065;BME280;12258;50.940;5.330;2022-08-19T07:11:14;101102.88;;;21.75;100.00
24065;BME280;12258;50.940;5.330;2022-08-19T07:13:40;101098.97;;;21.37;100.00
24065;BME280;12258;50.940;5.330;2022-08-19T07:16:11;101093.34;;;21.67;100.00
24065;BME280;12258;50.940;5.330;2022-08-19T07:18:38;101099.38;;;21.61;100.00
24065;BME280;12258;50.940;5.330;2022-08-19T07:21:09;101105.09;;;21.95;100.00
24065;BME280;12258;50.940;5.330;2022-08-19T07:23:35;101113.50;;;22.29;100.00
24065;BME280;12258;50.940;5.330;2022-08-19T07:26:09;101122.00;;;22.49;100.00
24065;BME280;12258;50.940;5.330;2022-08-19T07:28:35;101111.69;;;22.67;100.00
24065;BME280;12258;50.940;5.330;2022-08-19T07:31:07;101114.63;;;22.45;100.00
24065;BME280;12258;50.940;5.330;2022-08-19T07:33:34;101112.84;;;22.40;100.00
24065;BME280;12258;50.940;5.330;2022-08-19T07:36:03;101114.13;;;22.34;100.00
24065;BME280;12258;50.940;5.330;2022-08-19T07:38:29;101112.63;;;22.03;100.00
24065;BME280;12258;50.940;5.330;2022-08-19T07:40:55;101122.00;;;22.75;100.00
24065;BME280;12258;50.940;5.330;2022-08-19T07:43:21;101120.22;;;22.62;100.00
24065;BME280;12258;50.940;5.330;2022-08-19T07:45:51;101121.47;;;23.07;100.00
24065;BME280;12258;50.940;5.330;2022-08-19T07:48:16;101118.97;;;23.31;100.00
24065;BME280;12258;50.940;5.330;2022-08-19T07:50:42;101118.53;;;23.12;100.00
24065;BME280;12258;50.940;5.330;2022-08-19T07:53:08;101123.31;;;22.43;100.00
24065;BME280;12258;50.940;5.330;2022-08-19T07:55:33;101128.34;;;23.27;100.00
24065;BME280;12258;50.940;5.330;2022-08-19T07:57:59;101130.66;;;23.62;100.00
24065;BME280;12258;50.940;5.330;2022-08-19T08:00:25;101135.13;;;22.83;100.00
24065;BME280;12258;50.940;5.330;2022-08-19T08:02:52;101137.81;;;23.43;100.00
24065;BME280;12258;50.940;5.330;2022-08-19T08:05:17;101144.66;;;22.65;100.00
24065;BME280;12258;50.940;5.330;2022-08-19T08:08:01;101142.09;;;23.23;100.00
24065;BME280;12258;50.940;5.330;2022-08-19T08:10:45;101135.78;;;22.80;100.00
24065;BME280;12258;50.940;5.330;2022-08-19T08:13:11;101144.56;;;23.25;100.00
24065;BME280;12258;50.940;5.330;2022-08-19T08:15:38;101146.72;;;23.11;100.00
24065;BME280;12258;50.940;5.330;2022-08-19T08:18:04;101151.59;;;23.31;100.00
24065;BME280;12258;50.940;5.330;2022-08-19T08:20:30;101151.59;;;23.39;100.00
24065;BME280;12258;50.940;5.330;2022-08-19T08:22:56;101156.81;;;23.49;100.00
24065;BME280;12258;50.940;5.330;2022-08-19T08:25:40;101162.38;;;23.58;100.00
24065;BME280;12258;50.940;5.330;2022-08-19T08:28:05;101158.50;;;23.33;100.00
24065;BME280;12258;50.940;5.330;2022-08-19T08:30:32;101163.72;;;23.43;100.00
24065;BME280;12258;50.940;5.330;2022-08-19T08:33:00;101162.88;;;23.89;100.00
24065;BME280;12258;50.940;5.330;2022-08-19T08:35:25;101155.34;;;23.89;100.00
24065;BME280;12258;50.940;5.330;2022-08-19T08:37:53;101162.03;;;24.26;100.00
24065;BME280;12258;50.940;5.330;2022-08-19T08:42:58;101150.75;;;24.43;100.00
24065;BME280;12258;50.940;5.330;2022-08-19T08:45:30;101158.91;;;24.28;100.00
24065;BME280;12258;50.940;5.330;2022-08-19T08:48:02;101162.34;;;23.96;100.00
24065;BME280;12258;50.940;5.330;2022-08-19T08:50:35;101160.59;;;24.70;100.00
24065;BME280;12258;50.940;5.330;2022-08-19T08:53:05;101163.97;;;23.97;100.00
24065;BME280;12258;50.940;5.330;2022-08-19T08:55:32;101162.09;;;25.53;100.00
24065;BME280;12258;50.940;5.330;2022-08-19T08:58:04;101156.22;;;26.55;100.00
24065;BME280;12258;50.940;5.330;2022-08-19T09:00:34;101168.31;;;26.83;100.00
24065;BME280;12258;50.940;5.330;2022-08-19T09:03:01;101156.78;;;26.20;100.00
24065;BME280;12258;50.940;5.330;2022-08-19T09:05:40;101161.22;;;27.01;100.00
24065;BME280;12258;50.940;5.330;2022-08-19T09:08:18;101159.81;;;26.15;100.00
24065;BME280;12258;50.940;5.330;2022-08-19T09:10:53;101165.78;;;26.78;100.00
24065;BME280;12258;50.940;5.330;2022-08-19T09:13:48;101162.91;;;28.07;100.00
24065;BME280;12258;50.940;5.330;2022-08-19T09:16:20;101172.28;;;27.96;100.00
24065;BME280;12258;50.940;5.330;2022-08-19T09:18:48;101171.50;;;27.36;100.00
24065;BME280;12258;50.940;5.330;2022-08-19T09:21:15;101170.66;;;28.29;100.00
24065;BME280;12258;50.940;5.330;2022-08-19T09:23:41;101167.59;;;26.86;100.00
24065;BME280;12258;50.940;5.330;2022-08-19T09:26:11;101172.63;;;28.79;100.00
24065;BME280;12258;50.940;5.330;2022-08-19T09:28:39;101166.69;;;27.68;100.00
24065;BME280;12258;50.940;5.330;2022-08-19T09:31:09;101163.00;;;28.80;100.00
24065;BME280;12258;50.940;5.330;2022-08-19T09:33:35;101165.84;;;27.95;100.00
24065;BME280;12258;50.940;5.330;2022-08-19T09:36:06;101164.41;;;29.28;100.00
24065;BME280;12258;50.940;5.330;2022-08-19T09:38:34;101159.13;;;29.68;100.00
24065;BME280;12258;50.940;5.330;2022-08-19T09:41:05;101159.59;;;29.96;95.92
24065;BME280;12258;50.940;5.330;2022-08-19T09:43:32;101170.91;;;28.05;100.00
24065;BME280;12258;50.940;5.330;2022-08-19T09:45:59;101157.91;;;28.85;98.39
24065;BME280;12258;50.940;5.330;2022-08-19T09:48:25;101158.00;;;30.21;99.14
24065;BME280;12258;50.940;5.330;2022-08-19T09:50:51;101167.63;;;30.43;93.01
24065;BME280;12258;50.940;5.330;2022-08-19T09:53:18;101169.09;;;30.10;96.35
24065;BME280;12258;50.940;5.330;2022-08-19T09:55:44;101160.47;;;29.55;86.00
24065;BME280;12258;50.940;5.330;2022-08-19T09:58:10;101175.47;;;30.30;92.08
24065;BME280;12258;50.940;5.330;2022-08-19T10:00:37;101166.16;;;28.09;97.28
24065;BME280;12258;50.940;5.330;2022-08-19T10:03:03;101161.44;;;29.62;93.84
24065;BME280;12258;50.940;5.330;2022-08-19T10:05:28;101154.06;;;30.81;87.70
24065;BME280;12258;50.940;5.330;2022-08-19T10:08:12;101162.13;;;30.53;83.14
24065;BME280;12258;50.940;5.330;2022-08-19T10:10:38;101163.13;;;31.30;82.86
24065;BME280;12258;50.940;5.330;2022-08-19T10:13:03;101166.19;;;29.81;87.06
24065;BME280;12258;50.940;5.330;2022-08-19T10:15:29;101163.28;;;29.74;86.40
24065;BME280;12258;50.940;5.330;2022-08-19T10:17:55;101153.34;;;30.06;83.25
24065;BME280;12258;50.940;5.330;2022-08-19T10:20:21;101153.50;;;30.69;86.55
24065;BME280;12258;50.940;5.330;2022-08-19T10:22:48;101147.28;;;30.86;83.57
24065;BME280;12258;50.940;5.330;2022-08-19T10:25:13;101145.47;;;30.18;85.48
24065;BME280;12258;50.940;5.330;2022-08-19T10:27:39;101156.13;;;30.84;87.51
24065;BME280;12258;50.940;5.330;2022-08-19T10:30:06;101151.06;;;30.67;86.24
24065;BME280;12258;50.940;5.330;2022-08-19T10:32:32;101144.53;;;30.93;84.07
24065;BME280;12258;50.940;5.330;2022-08-19T10:34:57;101144.25;;;31.01;82.84
24065;BME280;12258;50.940;5.330;2022-08-19T10:37:23;101140.53;;;29.86;88.15
24065;BME280;12258;50.940;5.330;2022-08-19T10:39:50;101136.00;;;30.30;87.50
24065;BME280;12258;50.940;5.330;2022-08-19T10:42:16;101146.56;;;29.01;92.19
24065;BME280;12258;50.940;5.330;2022-08-19T10:44:43;101151.63;;;30.50;90.82
24065;BME280;12258;50.940;5.330;2022-08-19T10:47:10;101151.19;;;29.32;94.00
24065;BME280;12258;50.940;5.330;2022-08-19T10:49:36;101140.38;;;29.56;91.69
24065;BME280;12258;50.940;5.330;2022-08-19T10:52:24;101141.97;;;30.25;86.43
24065;BME280;12258;50.940;5.330;2022-08-19T10:55:03;101133.38;;;29.66;93.07
24065;BME280;12258;50.940;5.330;2022-08-19T10:57:47;101143.13;;;29.72;91.93
24065;BME280;12258;50.940;5.330;2022-08-19T11:00:13;101142.81;;;30.03;92.37
24065;BME280;12258;50.940;5.330;2022-08-19T11:02:38;101141.88;;;30.44;88.19
24065;BME280;12258;50.940;5.330;2022-08-19T11:05:04;101141.41;;;30.16;88.29
24065;BME280;12258;50.940;5.330;2022-08-19T11:07:32;101136.47;;;29.61;93.57
24065;BME280;12258;50.940;5.330;2022-08-19T11:09:57;101143.91;;;30.21;89.72
24065;BME280;12258;50.940;5.330;2022-08-19T11:12:23;101129.56;;;29.36;89.12
24065;BME280;12258;50.940;5.330;2022-08-19T11:14:50;101140.63;;;28.49;95.20
24065;BME280;12258;50.940;5.330;2022-08-19T11:17:16;101126.28;;;28.38;99.09
24065;BME280;12258;50.940;5.330;2022-08-19T11:19:41;101126.56;;;29.93;90.61
24065;BME280;12258;50.940;5.330;2022-08-19T11:22:08;101132.91;;;29.86;93.82
24065;BME280;12258;50.940;5.330;2022-08-19T11:24:35;101131.75;;;30.17;92.75
24065;BME280;12258;50.940;5.330;2022-08-19T11:27:04;101133.19;;;30.60;95.46
24065;BME280;12258;50.940;5.330;2022-08-19T11:29:31;101142.09;;;30.91;90.72
24065;BME280;12258;50.940;5.330;2022-08-19T11:31:57;101130.97;;;29.68;90.84
24065;BME280;12258;50.940;5.330;2022-08-19T11:34:25;101126.91;;;29.24;98.21
24065;BME280;12258;50.940;5.330;2022-08-19T11:36:53;101119.69;;;28.84;99.38
24065;BME280;12258;50.940;5.330;2022-08-19T11:39:21;101123.91;;;29.77;95.63
24065;BME280;12258;50.940;5.330;2022-08-19T11:41:48;101118.81;;;29.41;98.10
24065;BME280;12258;50.940;5.330;2022-08-19T11:44:14;101127.72;;;30.41;95.34
24065;BME280;12258;50.940;5.330;2022-08-19T11:46:40;101122.41;;;30.36;94.16
24065;BME280;12258;50.940;5.330;2022-08-19T11:49:06;101131.25;;;30.93;88.08
24065;BME280;12258;50.940;5.330;2022-08-19T11:51:33;101128.38;;;31.26;89.46
24065;BME280;12258;50.940;5.330;2022-08-19T11:53:59;101127.56;;;30.89;89.23
24065;BME280;12258;50.940;5.330;2022-08-19T11:56:26;101127.25;;;32.25;88.25
24065;BME280;12258;50.940;5.330;2022-08-19T11:58:52;101128.03;;;32.19;81.79
24065;BME280;12258;50.940;5.330;2022-08-19T12:01:20;101128.88;;;31.76;83.79
24065;BME280;12258;50.940;5.330;2022-08-19T12:03:48;101136.41;;;32.05;85.15
24065;BME280;12258;50.940;5.330;2022-08-19T12:06:17;101125.75;;;31.07;89.03
24065;BME280;12258;50.940;5.330;2022-08-19T12:08:44;101126.19;;;31.42;88.75
24065;BME280;12258;50.940;5.330;2022-08-19T12:11:11;101130.06;;;31.71;88.03
24065;BME280;12258;50.940;5.330;2022-08-19T12:13:38;101135.94;;;31.96;85.21
24065;BME280;12258;50.940;5.330;2022-08-19T12:16:13;101127.19;;;29.38;97.12
24065;BME280;12258;50.940;5.330;2022-08-19T12:18:40;101128.16;;;29.94;95.67
24065;BME280;12258;50.940;5.330;2022-08-19T12:21:11;101129.81;;;31.46;88.98
24065;BME280;12258;50.940;5.330;2022-08-19T12:23:39;101125.97;;;30.06;94.68
24065;BME280;12258;50.940;5.330;2022-08-19T12:26:04;101123.66;;;31.34;88.87
24065;BME280;12258;50.940;5.330;2022-08-19T12:28:30;101120.19;;;31.95;86.65
24065;BME280;12258;50.940;5.330;2022-08-19T12:30:56;101111.75;;;30.81;90.63
24065;BME280;12258;50.940;5.330;2022-08-19T12:33:22;101118.59;;;30.51;94.05
24065;BME280;12258;50.940;5.330;2022-08-19T12:35:50;101120.66;;;31.57;90.72
24065;BME280;12258;50.940;5.330;2022-08-19T12:38:16;101119.06;;;29.78;96.94
24065;BME280;12258;50.940;5.330;2022-08-19T12:40:45;101115.50;;;29.36;100.00
24065;BME280;12258;50.940;5.330;2022-08-19T12:43:11;101105.94;;;30.11;98.53
24065;BME280;12258;50.940;5.330;2022-08-19T12:45:37;101105.53;;;29.87;99.55
24065;BME280;12258;50.940;5.330;2022-08-19T12:48:03;101105.59;;;29.45;100.00
24065;BME280;12258;50.940;5.330;2022-08-19T12:50:29;101110.56;;;30.23;98.90
24065;BME280;12258;50.940;5.330;2022-08-19T12:52:56;101106.28;;;28.97;100.00